Time;durP1;ratioP1;P1;durP2;ratioP2;P2;SDS_P1;SDS_P2;PMS_P1;PMS_P2;Temp;Humidity;BMP_temperature;BMP_pressure;BME280_temperature;BME280_humidity;BME280_pressure;Samples;Min_cycle;Max_cycle;Signal;HPM_P1;HPM_P2
2023/02/15 00:01:08;;;;;;;;;;;8.10;85.20;;;;;;7418403;19;19911;-82
2023/02/15 00:03:55;;;;;;;;;;;8.20;85.50;;;;;;7418199;19;19928;-81
2023/02/15 00:06:51;;;;;;;;;;;8.10;85.30;;;;;;7418202;19;19915;-81
2023/02/15 00:09:28;;;;;;;;;;;8.10;85.10;;;;;;7419383;19;19949;-81
2023/02/15 00:11:58;;;;;;;;;;;8.20;84.90;;;;;;7417359;19;19952;-81
2023/02/15 00:14:28;;;;;;;;;;;8.10;84.70;;;;;;7416447;19;19908;-81
2023/02/15 00:17:03;;;;;;;;;;;8.10;84.80;;;;;;7438094;19;20186;-81
2023/02/15 00:19:34;;;;;;;;;;;8.10;84.70;;;;;;7419313;19;19911;-80
2023/02/15 00:22:35;;;;;;;;;;;8.10;84.70;;;;;;7417992;19;19909;-80
2023/02/15 00:25:08;;;;;;;;;;;8.10;84.80;;;;;;7417892;19;19915;-82
2023/02/15 00:27:45;;;;;;;;;;;8.00;84.80;;;;;;7417539;19;19930;-81
2023/02/15 00:30:14;;;;;;;;;;;8.00;85.10;;;;;;7416696;19;19906;-81
2023/02/15 00:32:44;;;;;;;;;;;8.00;85.40;;;;;;7416705;19;19910;-80
2023/02/15 00:35:16;;;;;;;;;;;8.00;85.30;;;;;;7417796;19;19923;-80
2023/02/15 00:37:47;;;;;;;;;;;8.00;85.10;;;;;;7419564;19;19911;-81
2023/02/15 00:40:16;;;;;;;;;;;8.00;85.00;;;;;;7388351;19;19915;-80
2023/02/15 00:43:00;;;;;;;;;;;8.00;84.90;;;;;;7388051;19;20236;-81
2023/02/15 00:45:29;;;;;;;;;;;8.00;85.00;;;;;;7387428;19;20241;-80
2023/02/15 00:47:57;;;;;;;;;;;7.90;85.00;;;;;;7386948;19;19903;-81
2023/02/15 00:50:31;;;;;;;;;;;7.90;84.80;;;;;;7390124;19;19932;-80
2023/02/15 00:53:00;;;;;;;;;;;7.90;84.60;;;;;;7409013;19;19907;-80
2023/02/15 00:55:33;;;;;;;;;;;7.90;84.50;;;;;;7388467;19;19911;-81
2023/02/15 00:58:01;;;;;;;;;;;7.90;84.40;;;;;;7387885;19;19911;-80
2023/02/15 01:00:33;;;;;;;;;;;7.90;84.50;;;;;;7387691;19;19906;-81
2023/02/15 01:03:02;;;;;;;;;;;7.90;84.80;;;;;;7387451;19;20014;-81
2023/02/15 01:05:33;;;;;;;;;;;7.90;84.70;;;;;;7386216;19;19921;-81
2023/02/15 01:08:02;;;;;;;;;;;7.90;84.30;;;;;;7408217;19;19911;-82
2023/02/15 01:13:14;;;;;;;;;;;7.80;84.10;;;;;;7389027;19;19928;-81
2023/02/15 01:15:52;;;;;;;;;;;7.80;84.20;;;;;;7387203;19;19967;-81
2023/02/15 01:18:23;;;;;;;;;;;7.70;84.40;;;;;;7388174;19;19934;-81
2023/02/15 01:20:55;;;;;;;;;;;7.70;84.70;;;;;;7387595;19;20232;-81
2023/02/15 01:23:29;;;;;;;;;;;7.60;84.50;;;;;;7386081;19;19918;-82
2023/02/15 01:26:03;;;;;;;;;;;7.60;84.40;;;;;;7407077;19;19971;-81
2023/02/15 01:28:52;;;;;;;;;;;7.60;84.40;;;;;;7387676;19;19911;-82
2023/02/15 01:34:39;;;;;;;;;;;7.60;84.10;;;;;;7384776;19;19907;-83
2023/02/15 01:37:29;;;;;;;;;;;7.60;84.40;;;;;;7384489;19;20498;-82
2023/02/15 01:52:04;;;;;;;;;;;7.60;84.30;;;;;;7383717;19;19911;-82
2023/02/15 01:55:02;;;;;;;;;;;7.60;84.30;;;;;;7387025;19;19955;-81
2023/02/15 01:57:42;;;;;;;;;;;7.60;84.40;;;;;;7384515;19;19915;-81
2023/02/15 02:06:12;;;;;;;;;;;7.50;84.10;;;;;;7383328;19;20178;-82
2023/02/15 02:09:03;;;;;;;;;;;7.50;84.50;;;;;;7389439;19;20162;-81
2023/02/15 02:14:52;;;;;;;;;;;7.40;84.50;;;;;;7386068;19;19936;-82
2023/02/15 02:17:52;;;;;;;;;;;7.40;84.40;;;;;;7385963;19;19967;-82
2023/02/15 02:20:47;;;;;;;;;;;7.30;84.50;;;;;;7383261;19;19911;-81
2023/02/15 02:26:22;;;;;;;;;;;7.30;84.20;;;;;;7386367;19;20284;-81
2023/02/15 02:29:18;;;;;;;;;;;7.30;84.40;;;;;;7405284;19;19911;-81
2023/02/15 02:32:12;;;;;;;;;;;7.30;84.70;;;;;;7385923;19;19919;-81
2023/02/15 02:34:47;;;;;;;;;;;7.30;84.40;;;;;;7384699;19;19939;-81
2023/02/15 02:37:22;;;;;;;;;;;7.30;84.20;;;;;;7384638;19;20113;-81
2023/02/15 02:40:04;;;;;;;;;;;7.30;84.10;;;;;;7385275;19;19915;-81
2023/02/15 02:42:41;;;;;;;;;;;7.30;84.10;;;;;;7385200;19;19911;-81
2023/02/15 02:45:17;;;;;;;;;;;7.20;84.50;;;;;;7384419;19;20145;-81
2023/02/15 02:47:50;;;;;;;;;;;7.20;84.50;;;;;;7383576;19;19935;-81
2023/02/15 02:50:29;;;;;;;;;;;7.20;84.30;;;;;;7385091;19;20143;-81
2023/02/15 02:52:59;;;;;;;;;;;7.30;84.20;;;;;;7406522;19;20214;-81
2023/02/15 02:55:32;;;;;;;;;;;7.20;84.10;;;;;;7384328;19;20189;-81
2023/02/15 02:58:04;;;;;;;;;;;7.20;83.90;;;;;;7384791;19;20241;-81
2023/02/15 03:00:40;;;;;;;;;;;7.20;84.10;;;;;;7385044;19;19927;-81
2023/02/15 03:03:14;;;;;;;;;;;7.20;84.40;;;;;;7384501;19;20175;-81
2023/02/15 03:05:47;;;;;;;;;;;7.20;84.30;;;;;;7384626;19;20147;-81
2023/02/15 03:08:21;;;;;;;;;;;7.20;84.00;;;;;;7383421;19;19911;-81
2023/02/15 03:10:52;;;;;;;;;;;7.20;83.90;;;;;;7405609;19;19963;-81
2023/02/15 03:13:25;;;;;;;;;;;7.20;83.90;;;;;;7384117;19;19919;-81
2023/02/15 03:18:48;;;;;;;;;;;;;;;;;;;;;
2023/02/15 03:44:52;;;;;;;;;;;6.90;84.40;;;;;;7418197;19;20220;-81
2023/02/15 03:47:28;;;;;;;;;;;7.00;84.20;;;;;;7417721;19;19934;-82
2023/02/15 03:49:58;;;;;;;;;;;7.00;84.00;;;;;;7438860;19;20160;-81
2023/02/15 03:52:28;;;;;;;;;;;6.90;84.30;;;;;;7418264;19;19929;-82
2023/02/15 03:55:11;;;;;;;;;;;6.90;84.70;;;;;;7420454;19;19959;-82
2023/02/15 04:03:13;;;;;;;;;;;6.90;84.40;;;;;;7420090;19;19911;-82
2023/02/15 04:05:46;;;;;;;;;;;6.80;84.50;;;;;;7417326;19;19907;-82
2023/02/15 04:10:51;;;;;;;;;;;6.80;84.60;;;;;;7416537;19;19929;-82
2023/02/15 04:11:14;;;;;;;;;;;6.80;84.90;;;;;;7419408;19;19934;-81
2023/02/15 04:13:43;;;;;;;;;;;6.80;84.80;;;;;;7437871;19;19934;-81
2023/02/15 04:16:11;;;;;;;;;;;6.80;84.90;;;;;;7417848;19;19930;-81
2023/02/15 04:26:59;;;;;;;;;;;6.80;84.30;;;;;;7419758;19;19911;-82
2023/02/15 04:29:30;;;;;;;;;;;6.80;84.60;;;;;;7416156;19;19927;-82
2023/02/15 04:32:04;;;;;;;;;;;6.80;84.40;;;;;;7437772;19;19934;-81
2023/02/15 04:34:35;;;;;;;;;;;6.80;84.40;;;;;;7417444;19;19921;-80
2023/02/15 04:37:11;;;;;;;;;;;6.80;84.10;;;;;;7417337;19;19903;-80
2023/02/15 04:39:40;;;;;;;;;;;6.80;84.00;;;;;;7417210;19;19915;-81
2023/02/15 04:42:09;;;;;;;;;;;6.80;84.10;;;;;;7415948;19;20214;-80
2023/02/15 04:44:37;;;;;;;;;;;6.80;84.10;;;;;;7396319;19;19962;-80
2023/02/15 04:47:09;;;;;;;;;;;6.80;84.10;;;;;;7405428;19;19911;-80
2023/02/15 04:49:46;;;;;;;;;;;6.80;83.90;;;;;;7408731;19;19958;-81
2023/02/15 04:52:14;;;;;;;;;;;6.80;84.00;;;;;;7388203;19;20147;-81
2023/02/15 04:54:44;;;;;;;;;;;6.80;84.30;;;;;;7388134;19;19918;-80
2023/02/15 04:57:15;;;;;;;;;;;6.80;84.30;;;;;;7388571;19;19939;-80
2023/02/15 04:59:45;;;;;;;;;;;6.80;84.90;;;;;;7389084;19;19942;-80
2023/02/15 05:02:16;;;;;;;;;;;6.70;85.10;;;;;;7386591;19;19933;-81
2023/02/15 05:04:53;;;;;;;;;;;6.70;84.60;;;;;;7408003;19;19907;-81
2023/02/15 05:07:24;;;;;;;;;;;6.80;84.30;;;;;;7388217;19;19927;-81
2023/02/15 05:09:53;;;;;;;;;;;6.70;84.80;;;;;;7387582;19;19972;-81
2023/02/15 05:12:22;;;;;;;;;;;6.80;84.00;;;;;;7386478;19;19934;-81
2023/02/15 05:17:34;;;;;;;;;;;6.70;84.70;;;;;;7384960;19;19911;-80
2023/02/15 05:20:03;;;;;;;;;;;6.70;84.70;;;;;;7406725;19;19934;-81
2023/02/15 05:22:31;;;;;;;;;;;6.70;84.30;;;;;;7385309;19;19915;-80
2023/02/15 05:30:23;;;;;;;;;;;6.70;84.00;;;;;;7388257;19;20163;-81
2023/02/15 05:32:54;;;;;;;;;;;6.60;84.20;;;;;;7385137;19;19931;-80
2023/02/15 05:35:22;;;;;;;;;;;6.60;84.10;;;;;;7387095;19;20176;-81
2023/02/15 05:37:51;;;;;;;;;;;6.70;84.10;;;;;;7405632;19;19911;-83
2023/02/15 05:40:20;;;;;;;;;;;6.70;84.00;;;;;;7385908;19;19934;-80
2023/02/15 05:42:48;;;;;;;;;;;6.70;84.00;;;;;;7384941;19;19975;-81
2023/02/15 05:45:34;;;;;;;;;;;;;;;;;;;;;
2023/02/15 05:48:08;;;;;;;;;;;6.60;84.30;;;;;;7387715;19;19921;-81
2023/02/15 05:50:39;;;;;;;;;;;6.60;84.60;;;;;;7385535;19;19979;-81
2023/02/15 05:53:08;;;;;;;;;;;6.60;84.90;;;;;;7384766;19;19915;-80
2023/02/15 05:55:46;;;;;;;;;;;6.50;85.10;;;;;;7403406;19;19911;-81
2023/02/15 05:58:20;;;;;;;;;;;6.50;85.80;;;;;;7386477;19;19929;-81
2023/02/15 06:01:22;;;;;;;;;;;6.50;84.80;;;;;;7386284;19;19915;-82
2023/02/15 06:06:39;;;;;;;;;;;6.50;84.70;;;;;;7385308;19;20112;-82
2023/02/15 06:09:14;;;;;;;;;;;6.50;84.70;;;;;;7385229;19;19907;-82
2023/02/15 06:11:42;;;;;;;;;;;6.50;85.00;;;;;;7383729;19;20359;-80
2023/02/15 06:14:13;;;;;;;;;;;6.50;85.40;;;;;;7383030;19;19907;-80
2023/02/15 06:16:41;;;;;;;;;;;6.50;85.30;;;;;;7404355;19;19907;-80
2023/02/15 06:19:15;;;;;;;;;;;6.40;84.70;;;;;;7383370;19;19907;-81
2023/02/15 06:21:43;;;;;;;;;;;6.50;84.50;;;;;;7384205;19;19924;-79
2023/02/15 06:24:13;;;;;;;;;;;6.50;84.30;;;;;;7382698;19;19915;-79
2023/02/15 06:26:42;;;;;;;;;;;6.50;84.30;;;;;;7382883;19;19918;-80
2023/02/15 06:29:10;;;;;;;;;;;6.50;84.60;;;;;;7382944;19;19903;-79
2023/02/15 06:37:51;;;;;;;;;;;6.30;84.80;;;;;;7385269;19;19922;-81
2023/02/15 06:40:34;;;;;;;;;;;6.30;84.90;;;;;;7384047;19;19919;-81
2023/02/15 06:43:06;;;;;;;;;;;6.30;85.40;;;;;;7404220;19;19943;-81
2023/02/15 13:12:26;;;;;;;;;;;12.40;87.40;;;;;;7363642;19;19911;-81
2023/02/15 13:18:20;;;;;;;;;;;12.40;87.00;;;;;;7388206;19;19907;-81
2023/02/15 13:30:02;;;;;;;;;;;12.50;86.10;;;;;;7385581;19;19974;-81
2023/02/15 13:35:42;;;;;;;;;;;12.50;86.20;;;;;;7385363;19;19911;-81
2023/02/15 13:41:52;;;;;;;;;;;12.50;86.30;;;;;;7385084;19;19937;-82
2023/02/15 13:44:30;;;;;;;;;;;12.50;86.10;;;;;;7386353;19;19961;-81
2023/02/15 13:47:27;;;;;;;;;;;12.50;86.20;;;;;;7406181;19;20159;-82
2023/02/15 13:50:23;;;;;;;;;;;12.60;86.30;;;;;;7386641;19;20262;-82
2023/02/15 13:56:12;;;;;;;;;;;12.60;85.50;;;;;;7320426;19;19915;-82
2023/02/15 14:02:40;;;;;;;;;;;12.60;84.70;;;;;;7367260;19;19903;-81
2023/02/15 14:34:33;;;;;;;;;;;;;;;;;;;;;
2023/02/15 14:42:50;;;;;;;;;;;13.00;77.20;;;;;;7418980;19;19918;-81
2023/02/15 14:45:38;;;;;;;;;;;;;;;;;;;;;
2023/02/15 14:48:16;;;;;;;;;;;13.20;77.60;;;;;;7415142;19;19922;-80
2023/02/15 14:51:10;;;;;;;;;;;13.30;78.10;;;;;;7417959;19;19903;-82
2023/02/15 14:53:46;;;;;;;;;;;13.40;78.20;;;;;;7417059;19;20154;-81
2023/02/15 14:59:29;;;;;;;;;;;13.60;77.80;;;;;;7415557;19;20024;-82
2023/02/15 15:02:06;;;;;;;;;;;13.60;78.20;;;;;;7438298;19;19910;-81
2023/02/15 15:04:41;;;;;;;;;;;13.60;78.40;;;;;;7417899;19;19936;-82
2023/02/15 15:07:24;;;;;;;;;;;13.60;76.90;;;;;;7417601;19;19915;-82
2023/02/15 15:10:15;;;;;;;;;;;13.60;77.00;;;;;;7416571;19;19922;-82
2023/02/15 15:12:54;;;;;;;;;;;13.70;77.20;;;;;;7415626;19;20025;-81
2023/02/15 15:15:53;;;;;;;;;;;13.80;76.50;;;;;;7414649;19;19911;-81
2023/02/15 15:18:46;;;;;;;;;;;13.90;77.00;;;;;;7418985;19;19927;-82
2023/02/15 15:21:50;;;;;;;;;;;13.90;76.20;;;;;;7418101;19;19914;-81
2023/02/15 15:24:39;;;;;;;;;;;13.90;75.80;;;;;;7416698;19;20279;-82
2023/02/15 15:27:35;;;;;;;;;;;14.00;76.20;;;;;;7418434;19;19911;-81
2023/02/15 15:30:26;;;;;;;;;;;14.00;76.20;;;;;;7416907;19;19915;-81
2023/02/15 15:33:10;;;;;;;;;;;14.10;76.40;;;;;;7406513;19;19971;-81
2023/02/15 15:35:59;;;;;;;;;;;14.10;76.10;;;;;;7384825;19;19907;-81
2023/02/15 15:38:36;;;;;;;;;;;14.20;76.10;;;;;;7385398;19;19904;-82
2023/02/15 15:41:19;;;;;;;;;;;14.10;76.50;;;;;;7406668;19;19918;-81
2023/02/15 15:44:11;;;;;;;;;;;14.10;76.80;;;;;;7387969;19;19922;-81
2023/02/15 15:47:00;;;;;;;;;;;14.10;77.20;;;;;;7388650;19;19911;-80
2023/02/15 15:49:34;;;;;;;;;;;14.10;77.50;;;;;;7389740;19;19917;-80
2023/02/15 15:52:17;;;;;;;;;;;14.00;77.60;;;;;;7387867;19;19935;-81
2023/02/15 15:54:47;;;;;;;;;;;14.00;77.50;;;;;;7386714;19;19970;-80
2023/02/15 15:57:18;;;;;;;;;;;14.10;77.30;;;;;;7386665;19;19915;-80
2023/02/15 15:59:47;;;;;;;;;;;14.10;77.30;;;;;;7385475;19;19910;-80
2023/02/15 16:02:18;;;;;;;;;;;14.00;77.50;;;;;;7386082;19;20019;-80
2023/02/15 16:04:49;;;;;;;;;;;14.00;78.10;;;;;;7408630;19;20223;-80
2023/02/15 16:07:28;;;;;;;;;;;13.90;78.40;;;;;;7387141;19;19924;-81
2023/02/15 16:09:57;;;;;;;;;;;13.80;78.50;;;;;;7385923;19;19974;-80
2023/02/15 16:12:26;;;;;;;;;;;13.70;78.70;;;;;;7387777;19;19938;-80
2023/02/15 16:14:54;;;;;;;;;;;13.60;79.00;;;;;;7387240;19;19911;-79
2023/02/15 16:17:24;;;;;;;;;;;13.60;79.10;;;;;;7387655;19;19907;-80
2023/02/15 16:20:04;;;;;;;;;;;13.50;79.20;;;;;;7407232;19;19907;-81
2023/02/15 16:22:33;;;;;;;;;;;13.50;79.50;;;;;;7388364;19;19911;-81
2023/02/15 16:25:25;;;;;;;;;;;13.50;80.00;;;;;;7389038;19;19903;-81
2023/02/15 16:27:54;;;;;;;;;;;13.40;80.20;;;;;;7386715;19;19907;-81
2023/02/15 16:30:24;;;;;;;;;;;13.40;80.40;;;;;;7388060;19;19930;-81
2023/02/15 16:32:57;;;;;;;;;;;13.30;80.60;;;;;;7386356;19;19924;-81
2023/02/15 16:35:29;;;;;;;;;;;13.20;80.90;;;;;;7388634;19;20284;-82
2023/02/15 16:38:05;;;;;;;;;;;13.20;81.30;;;;;;7408486;19;19938;-81
2023/02/15 16:40:48;;;;;;;;;;;13.10;81.50;;;;;;7388905;19;19938;-81
2023/02/15 16:43:19;;;;;;;;;;;13.10;81.80;;;;;;7384870;19;19910;-80
2023/02/15 16:45:51;;;;;;;;;;;13.00;82.10;;;;;;7385038;19;19914;-81
2023/02/15 16:48:27;;;;;;;;;;;12.90;82.50;;;;;;7385753;19;19913;-81
2023/02/15 16:51:11;;;;;;;;;;;12.90;83.00;;;;;;7387291;19;19924;-81
2023/02/15 16:57:15;;;;;;;;;;;;;;;;;;;;;
2023/02/15 16:59:50;;;;;;;;;;;12.60;84.20;;;;;;7387929;19;19911;-81
2023/02/15 17:02:52;;;;;;;;;;;;;;;;;;;;;
2023/02/15 17:12:01;;;;;;;;;;;;;;;;;;;;;
2023/02/15 17:14:56;;;;;;;;;;;12.30;85.40;;;;;;7386191;19;19907;-81
2023/02/15 17:37:19;;;;;;;;;;;;;;;;;;;;;
2023/02/15 17:46:10;;;;;;;;;;;11.60;87.70;;;;;;7439048;19;19911;-82
2023/02/15 18:11:38;;;;;;;;;;;11.30;88.30;;;;;;7416559;19;19922;-80
2023/02/15 18:14:08;;;;;;;;;;;11.20;88.60;;;;;;7429541;19;19907;-80
2023/02/15 18:16:39;;;;;;;;;;;11.20;88.60;;;;;;7435989;19;20239;-80
2023/02/15 18:19:11;;;;;;;;;;;11.10;89.00;;;;;;7416301;19;19911;-81
2023/02/15 18:21:43;;;;;;;;;;;11.10;89.00;;;;;;7414312;19;19907;-80
2023/02/15 18:24:16;;;;;;;;;;;11.10;88.90;;;;;;7415409;19;19911;-80
2023/02/15 18:26:44;;;;;;;;;;;11.10;88.90;;;;;;7416542;19;19948;-80
2023/02/15 18:29:13;;;;;;;;;;;11.00;88.90;;;;;;7412623;19;19907;-80
2023/02/15 18:31:42;;;;;;;;;;;11.00;88.90;;;;;;7434695;19;19951;-80
2023/02/15 18:34:17;;;;;;;;;;;11.00;89.10;;;;;;7397656;19;19914;-80
2023/02/15 18:36:50;;;;;;;;;;;11.00;89.00;;;;;;7387226;19;19918;-80
2023/02/15 18:39:28;;;;;;;;;;;11.00;89.00;;;;;;7391015;19;19914;-81
2023/02/15 18:41:57;;;;;;;;;;;11.00;89.20;;;;;;7388002;19;19907;-81
2023/02/15 18:44:27;;;;;;;;;;;10.90;89.10;;;;;;7387240;19;21285;-81
2023/02/15 18:46:56;;;;;;;;;;;10.90;89.20;;;;;;7411084;19;20004;-81
2023/02/15 18:49:26;;;;;;;;;;;10.90;89.30;;;;;;7391513;19;19903;-81
2023/02/15 18:51:57;;;;;;;;;;;10.80;89.40;;;;;;7390722;19;19924;-81
2023/02/15 18:54:26;;;;;;;;;;;10.80;89.50;;;;;;7389024;19;19910;-80
2023/02/15 18:56:56;;;;;;;;;;;10.80;89.50;;;;;;7388171;19;19907;-81
2023/02/15 18:59:42;;;;;;;;;;;10.80;89.60;;;;;;7388421;19;19907;-82
2023/02/15 19:02:18;;;;;;;;;;;10.80;89.50;;;;;;7386821;19;20257;-81
2023/02/15 19:04:52;;;;;;;;;;;10.80;89.50;;;;;;7409795;19;19932;-81
2023/02/15 19:07:54;;;;;;;;;;;10.80;89.60;;;;;;7389203;19;20223;-81
2023/02/15 20:32:24;;;;;;;;;;;10.10;89.00;;;;;;7336921;19;20226;-81
2023/02/15 20:34:53;;;;;;;;;;;10.10;89.10;;;;;;7413203;19;20210;-80
2023/02/15 20:40:11;;;;;;;;;;;10.10;89.10;;;;;;7388592;19;20223;-81
2023/02/15 20:42:49;;;;;;;;;;;10.00;89.10;;;;;;7410420;19;19907;-81
2023/02/15 20:45:19;;;;;;;;;;;10.10;89.10;;;;;;7388326;19;19966;-81
2023/02/15 20:47:56;;;;;;;;;;;10.00;88.90;;;;;;7386268;19;19927;-81
2023/02/15 20:50:28;;;;;;;;;;;10.00;89.00;;;;;;7388564;19;19939;-82
2023/02/15 20:53:05;;;;;;;;;;;9.90;89.20;;;;;;7410827;19;20246;-81
2023/02/15 20:58:25;;;;;;;;;;;9.90;89.30;;;;;;7389573;19;19928;-81
2023/02/15 21:00:55;;;;;;;;;;;9.90;90.00;;;;;;7388351;19;20120;-81
2023/02/15 21:03:30;;;;;;;;;;;9.90;89.40;;;;;;7388486;19;19918;-80
2023/02/15 21:06:01;;;;;;;;;;;9.90;89.40;;;;;;7387914;19;19951;-80
2023/02/15 21:08:34;;;;;;;;;;;9.90;89.20;;;;;;7388598;19;19931;-80
2023/02/15 21:11:06;;;;;;;;;;;9.90;89.10;;;;;;7412216;19;19911;-81
2023/02/15 21:13:36;;;;;;;;;;;9.90;89.00;;;;;;7388465;19;19919;-80
2023/02/15 21:16:05;;;;;;;;;;;9.90;89.00;;;;;;7387709;19;19911;-81
2023/02/15 21:18:37;;;;;;;;;;;9.90;89.00;;;;;;7386620;19;19915;-81
2023/02/15 21:21:07;;;;;;;;;;;9.80;88.80;;;;;;7386549;19;20142;-81
2023/02/15 21:23:37;;;;;;;;;;;9.80;88.70;;;;;;7385903;19;20251;-80
2023/02/15 21:26:07;;;;;;;;;;;9.80;88.70;;;;;;7411672;19;19919;-80
2023/02/15 21:28:36;;;;;;;;;;;9.80;89.00;;;;;;7389425;19;20222;-81
2023/02/15 21:34:06;;;;;;;;;;;9.80;88.80;;;;;;7390588;19;19907;-80
2023/02/15 21:36:38;;;;;;;;;;;9.70;88.80;;;;;;7390675;19;19954;-81
2023/02/15 21:39:20;;;;;;;;;;;9.70;88.80;;;;;;7390418;19;19907;-81
2023/02/15 21:52:10;;;;;;;;;;;9.70;88.70;;;;;;7411774;19;19940;-80
2023/02/15 21:52:51;;;;;;;;;;;9.60;88.40;;;;;;7388322;19;19919;-81
2023/02/15 21:55:20;;;;;;;;;;;9.60;88.50;;;;;;7387567;19;19907;-81
2023/02/15 21:57:50;;;;;;;;;;;9.60;88.70;;;;;;7386180;19;19911;-81
2023/02/15 22:00:19;;;;;;;;;;;9.60;89.40;;;;;;7387237;19;19915;-80
2023/02/15 22:02:48;;;;;;;;;;;9.50;90.00;;;;;;7386619;19;19911;-81
2023/02/15 22:05:21;;;;;;;;;;;9.60;90.00;;;;;;7390407;19;19911;-82
2023/02/15 22:07:52;;;;;;;;;;;9.50;90.00;;;;;;7409107;19;19919;-80
2023/02/15 22:10:21;;;;;;;;;;;9.50;90.10;;;;;;7394091;19;19934;-80
2023/02/15 22:12:49;;;;;;;;;;;9.50;89.90;;;;;;7395397;19;20246;-80
2023/02/15 22:15:21;;;;;;;;;;;9.50;89.50;;;;;;7394646;19;19951;-81
2023/02/15 22:17:49;;;;;;;;;;;9.50;89.20;;;;;;7392446;19;20230;-81
2023/02/15 22:20:21;;;;;;;;;;;9.50;88.60;;;;;;7393269;19;19931;-79
2023/02/15 22:22:51;;;;;;;;;;;9.50;88.20;;;;;;7415176;19;20238;-79
2023/02/15 22:25:20;;;;;;;;;;;9.50;88.20;;;;;;7394569;19;19911;-80
2023/02/15 22:27:50;;;;;;;;;;;9.50;88.00;;;;;;7393107;19;19915;-80
2023/02/15 22:30:21;;;;;;;;;;;9.40;88.10;;;;;;7392937;19;19931;-80
2023/02/15 22:32:49;;;;;;;;;;;9.40;88.20;;;;;;7393612;19;19974;-80
2023/02/15 22:35:23;;;;;;;;;;;9.40;88.00;;;;;;7396271;19;19918;-81
2023/02/15 22:37:51;;;;;;;;;;;9.30;88.00;;;;;;7416908;19;19911;-80
2023/02/15 22:40:22;;;;;;;;;;;9.40;88.30;;;;;;7393982;19;19910;-80
2023/02/15 22:42:52;;;;;;;;;;;9.30;88.20;;;;;;7391782;19;20218;-81
2023/02/15 22:45:21;;;;;;;;;;;9.30;88.10;;;;;;7393274;19;19911;-82
2023/02/15 22:47:53;;;;;;;;;;;9.30;88.00;;;;;;7392865;19;19917;-82
2023/02/15 22:53:15;;;;;;;;;;;9.20;87.90;;;;;;7390076;19;19911;-82
2023/02/15 22:55:50;;;;;;;;;;;9.20;87.80;;;;;;7413568;19;19915;-80
2023/02/15 22:58:20;;;;;;;;;;;9.20;88.20;;;;;;7394520;19;19927;-81
2023/02/15 23:00:48;;;;;;;;;;;9.20;88.30;;;;;;7389366;19;19907;-80
2023/02/15 23:03:18;;;;;;;;;;;9.20;88.30;;;;;;7387765;19;19931;-81
2023/02/15 23:05:49;;;;;;;;;;;9.20;88.20;;;;;;7411024;19;19939;-80
2023/02/15 23:08:18;;;;;;;;;;;9.20;88.10;;;;;;7385126;19;19911;-79
2023/02/15 23:10:47;;;;;;;;;;;9.20;87.90;;;;;;7388006;19;19931;-79
2023/02/15 23:13:25;;;;;;;;;;;9.20;87.90;;;;;;7388492;19;19943;-79
2023/02/15 23:15:55;;;;;;;;;;;9.10;87.90;;;;;;7388712;19;19918;-80
2023/02/15 23:18:25;;;;;;;;;;;9.10;87.60;;;;;;7411507;19;20191;-79
2023/02/15 23:20:57;;;;;;;;;;;9.10;87.30;;;;;;7389116;19;19914;-80
2023/02/15 23:23:30;;;;;;;;;;;9.10;87.30;;;;;;7388296;19;20227;-81
2023/02/15 23:25:58;;;;;;;;;;;9.10;87.60;;;;;;7388871;19;19935;-80
2023/02/15 23:28:29;;;;;;;;;;;9.10;87.90;;;;;;7389913;19;19936;-81
2023/02/15 23:30:58;;;;;;;;;;;9.10;87.70;;;;;;7387982;19;19915;-81
2023/02/15 23:33:28;;;;;;;;;;;9.10;87.70;;;;;;7402509;19;19919;-79
2023/02/15 23:35:59;;;;;;;;;;;9.10;87.50;;;;;;7411676;19;19911;-80
2023/02/15 23:38:29;;;;;;;;;;;9.10;87.60;;;;;;7389301;19;20245;-82
2023/02/15 23:43:51;;;;;;;;;;;9.00;87.20;;;;;;7389007;19;20179;-81
2023/02/15 23:46:25;;;;;;;;;;;9.00;87.00;;;;;;7387842;19;19924;-81
2023/02/15 23:48:54;;;;;;;;;;;9.00;87.10;;;;;;7386448;19;19911;-81
2023/02/15 23:51:32;;;;;;;;;;;9.00;87.10;;;;;;7407420;19;19915;-81
2023/02/15 23:54:07;;;;;;;;;;;9.00;87.00;;;;;;7388690;19;19932;-81
2023/02/15 23:56:40;;;;;;;;;;;9.00;87.00;;;;;;7388316;19;20184;-81
2023/02/15 23:59:14;;;;;;;;;;;9.00;87.10;;;;;;7387688;19;20159;-81
